ADDS METAR Data INFO
IDs: Format: Raw Decoded Include TAF

Data at: 2050 UTC 24 Jun 2018

KAXH 242035Z AUTO 17011G18KT 10SM SCT038 32/23 A2992 RMK AO2 T03190231
KAXH 242015Z AUTO 16008G19KT 10SM SCT038 32/24 A2992 RMK AO2 T03220241
KAXH 241955Z AUTO 18011G19KT 10SM SCT034 SCT041 SCT047 33/23 A2993 RMK AO2 T03250233
KAXH 241935Z AUTO 17011G18KT 140V200 10SM BKN032 BKN040 BKN055 33/25 A2993 RMK AO2 T03250250
KAXH 241915Z AUTO 17009G17KT 10SM SCT030 BKN037 BKN043 33/25 A2993 RMK AO2 LTG DSNT SE T03270253
KAXH 241855Z AUTO 16010G19KT 10SM BKN034 BKN043 32/25 A2993 RMK AO2 T03170249
KAXH 241835Z AUTO 18007G15KT 10SM SCT035 SCT042 33/25 A2993 RMK AO2 T03270247
KAXH 241815Z AUTO 19009KT 160V220 10SM BKN033 BKN040 32/25 A2994 RMK AO2 T03180246
KAXH 241755Z AUTO 18007G17KT 150V210 10SM SCT033 32/25 A2994 RMK AO2 T03200245 10324 20236
KAXH 241735Z AUTO 18008G17KT 140V220 10SM CLR 32/24 A2995 RMK AO2 T03170243
KAXH 241715Z AUTO 16009G16KT 10SM CLR 32/25 A2994 RMK AO2 T03210250
KAXH 241655Z AUTO 16010G16KT 10SM SCT033 SCT038 SCT047 32/24 A2994 RMK AO2 T03170243
KAXH 241635Z AUTO 18006KT 10SM SCT033 BKN039 BKN048 32/25 A2993 RMK AO2 T03190248
KAXH 241615Z AUTO 18008G15KT 10SM SCT035 SCT048 SCT055 32/24 A2993 RMK AO2 T03150243
KAXH 241555Z AUTO 21006KT 170V230 10SM SCT037 SCT048 30/24 A2993 RMK AO2 T03020237
KAXH 241535Z AUTO 17008KT 140V200 10SM SCT025 SCT031 SCT037 31/25 A2992 RMK AO2 T03100247
KAXH 241515Z AUTO 17009KT 150V210 10SM SCT025 SCT031 31/25 A2992 RMK AO2 T03060254
KAXH 241455Z AUTO 19008KT 150V230 10SM SCT025 SCT032 BKN039 30/25 A2992 RMK AO2 T02960252
KAXH 241435Z AUTO 21007G15KT 10SM BKN021 BKN027 OVC038 29/25 A2991 RMK AO2 T02900246
KAXH 241415Z AUTO 16009G16KT 130V190 10SM BKN019 BKN025 OVC032 29/25 A2990 RMK AO2 LTG DSNT S T02930253
KAXH 241355Z AUTO 17007G14KT 130V210 10SM BKN017 BKN023 OVC030 29/26 A2990 RMK AO2 T02900255
KAXH 241335Z AUTO 19009KT 10SM BKN015 BKN023 BKN030 28/26 A2990 RMK AO2 T02790255
KAXH 241315Z AUTO 19004KT 10SM SCT022 SCT029 SCT036 27/25 A2990 RMK AO2 T02710253
KAXH 241255Z AUTO 00000KT 10SM SCT022 SCT029 26/25 A2989 RMK AO2 T02610251
KAXH 241235Z AUTO 13004KT 7SM CLR 25/25 A2989 RMK AO2 LTG DSNT S T02500246
KAXH 241215Z AUTO 15003KT 7SM CLR 24/24 A2989 RMK AO2 T02420240
KAXH 241155Z AUTO 00000KT 7SM SCT018 SCT029 SCT034 23/23 A2989 RMK AO2 T02340232 10251 20233
KAXH 241135Z AUTO 00000KT 7SM BKN018 BKN027 BKN034 24/23 A2990 RMK AO2 T02360233
KAXH 241115Z AUTO 00000KT 10SM BKN021 BKN028 24/24 A2990 RMK AO2 T02370235
KAXH 241055Z AUTO 00000KT 10SM BKN021 24/24 A2989 RMK AO2 T02370235
KAXH 241035Z AUTO 00000KT 7SM CLR 24/23 A2989 RMK AO2 T02360233
KAXH 241015Z AUTO 00000KT 10SM CLR 24/24 A2989 RMK AO2 T02420239
KAXH 240955Z AUTO 00000KT 10SM CLR 24/24 A2989 RMK AO2 T02400236
KAXH 240935Z AUTO 00000KT 10SM CLR 24/24 A2989 RMK AO2 T02400235
KAXH 240915Z AUTO 17003KT 10SM CLR 24/24 A2989 RMK AO2 T02430237
KAXH 240855Z AUTO 00000KT 10SM CLR 25/24 A2990 RMK AO2 T02450238
KAXH 240835Z AUTO 00000KT 10SM CLR 25/24 A2989 RMK AO2 T02460239
KAXH 240815Z AUTO 00000KT 10SM CLR 25/24 A2989 RMK AO2 T02450240
KAXH 240755Z AUTO 18004KT 10SM CLR 24/24 A2989 RMK AO2 T02420237
KAXH 240735Z AUTO 00000KT 10SM CLR 24/24 A2991 RMK AO2 T02430237
KAXH 240715Z AUTO 17003KT 10SM SCT017 SCT025 25/24 A2991 RMK AO2 T02450237
KAXH 240655Z AUTO 00000KT 10SM CLR 25/24 A2992 RMK AO2 T02460239
KAXH 240635Z AUTO 00000KT 10SM CLR 25/24 A2991 RMK AO2 T02490240
KAXH 240615Z AUTO 15004KT 10SM SCT022 25/24 A2990 RMK AO2 T02500241
KAXH 240555Z AUTO 16003KT 10SM SCT022 SCT026 25/24 A2989 RMK AO2 T02520242 10300 20251
KAXH 240535Z AUTO 15004KT 10SM SCT022 25/24 A2988 RMK AO2 T02520243
KAXH 240515Z AUTO 17003KT 10SM SCT017 SCT024 25/24 A2988 RMK AO2 T02520242
KAXH 240455Z AUTO 15004KT 10SM SCT017 SCT024 25/24 A2987 RMK AO2 T02540243
KAXH 240435Z AUTO 14004KT 10SM SCT024 25/24 A2987 RMK AO2 T02530243
KAXH 240415Z AUTO 13005KT 10SM SCT017 SCT025 26/25 A2987 RMK AO2 T02550245
KAXH 240355Z AUTO 14004KT 10SM SCT017 SCT023 26/25 A2987 RMK AO2 T02550246
KAXH 240335Z AUTO 14003KT 10SM SCT022 SCT028 26/25 A2987 RMK AO2 T02560246
KAXH 240315Z AUTO 14003KT 10SM SCT025 26/25 A2986 RMK AO2 T02570246
KAXH 240255Z AUTO 14003KT 10SM SCT017 SCT023 26/25 A2985 RMK AO2 T02580246
KAXH 240235Z AUTO 00000KT 10SM CLR 26/25 A2985 RMK AO2 T02590245
KAXH 240215Z AUTO 00000KT 10SM CLR 26/25 A2984 RMK AO2 T02630245
KAXH 240155Z AUTO 14003KT 10SM CLR 27/25 A2983 RMK AO2 T02650246
KAXH 240135Z AUTO 00000KT 10SM CLR 27/25 A2983 RMK AO2 T02690247
KAXH 240115Z AUTO 16006KT 10SM SCT020 SCT026 28/25 A2983 RMK AO2 T02760247
KAXH 240055Z AUTO 17010G16KT 10SM BKN022 BKN026 28/25 A2983 RMK AO2 T02820248
KAXH 240035Z AUTO 14010G17KT 110V180 10SM BKN022 BKN027 29/25 A2983 RMK AO2 T02910250
KAXH 240015Z AUTO 16009G15KT 10SM BKN024 29/25 A2983 RMK AO2 T02930250
KAXH 232355Z AUTO 16007KT 10SM SCT024 30/25 A2983 RMK AO2 T03000251 10331 20297
KAXH 232335Z AUTO 15010G18KT 10SM SCT028 SCT033 30/25 A2983 RMK AO2 T03020253
KAXH 232315Z AUTO 15008G15KT 10SM SCT030 31/25 A2983 RMK AO2 T03090250
KAXH 232255Z AUTO 15008G15KT 10SM SCT028 31/25 A2983 RMK AO2 T03060249
KAXH 232235Z AUTO 15010KT 10SM SCT029 31/25 A2984 RMK AO2 T03110248
KAXH 232215Z AUTO 16007G16KT 10SM SCT033 SCT043 SCT050 31/25 A2984 RMK AO2 T03060248
KAXH 232155Z AUTO 16007G14KT 10SM BKN033 BKN050 32/25 A2984 RMK AO2 T03200250
KAXH 232135Z AUTO 18006KT 10SM SCT033 SCT040 SCT047 33/25 A2985 RMK AO2 T03270251
KAXH 232115Z AUTO 17006KT 10SM SCT033 SCT040 SCT049 31/24 A2985 RMK AO2 T03110242
KAXH 232055Z AUTO 19008KT 10SM SCT033 SCT060 32/24 A2986 RMK AO2 T03180244
KAXH 232035Z AUTO 19008KT 10SM SCT033 SCT060 33/25 A2986 RMK AO2 T03270253
KAXH 232015Z AUTO 18008G15KT 10SM SCT033 SCT060 33/25 A2986 RMK AO2 T03260249
KAXH 231955Z AUTO 17006KT 10SM SCT033 SCT042 BKN060 32/25 A2986 RMK AO2 T03190248
KAXH 231935Z AUTO 20005KT 10SM SCT033 SCT042 SCT060 33/24 A2987 RMK AO2 T03270244
KAXH 231915Z AUTO 20006KT 10SM SCT031 SCT047 SCT060 32/25 A2988 RMK AO2 T03240253
KAXH 231855Z AUTO 20007G15KT 180V240 10SM SCT033 SCT038 SCT047 33/25 A2988 RMK AO2 T03260251
KAXH 231835Z AUTO 20008KT 10SM SCT031 SCT038 SCT055 33/25 A2989 RMK AO2 T03260250
KAXH 231815Z AUTO 18006KT 10SM SCT031 SCT038 SCT060 33/25 A2989 RMK AO2 T03270250
KAXH 231755Z AUTO 17007G14KT 10SM SCT040 SCT055 32/25 A2990 RMK AO2 T03190250 10327 20223
KAXH 231735Z AUTO 20006KT 10SM SCT046 SCT055 32/25 A2991 RMK AO2 T03160246
KAXH 231715Z AUTO 19011G16KT 10SM 33/25 A2990 RMK AO2 T03260249
KAXH 231655Z AUTO 19007G14KT 160V230 10SM 32/25 A2991 RMK AO2 T03190249
KAXH 231635Z AUTO 18009G14KT 130V260 10SM 31/25 A2990 RMK AO2 T03120248
KAXH 231615Z AUTO 18009G16KT 10SM 31/25 A2990 RMK AO2 T03120248
KAXH 231555Z AUTO 20007G17KT 180V240 10SM SCT025 SCT032 SCT041 31/25 A2989 RMK AO2 T03100248
KAXH 231535Z AUTO 18007KT 160V220 10SM SCT025 BKN030 BKN035 30/25 A2990 RMK AO2 T03000248
KAXH 231515Z AUTO 18007KT 10SM SCT022 BKN029 SCT040 30/25 A2990 RMK AO2 T03000252
KAXH 231455Z AUTO 22004KT 10SM BKN019 BKN027 BKN032 30/26 A2990 RMK AO2 T02970256
KAXH 231435Z AUTO 18008G14KT 10SM BKN017 OVC024 28/26 A2990 RMK AO2 T02840255
KAXH 231415Z AUTO 20010G15KT 10SM BKN015 BKN022 28/25 A2990 RMK AO2 T02800253
KAXH 231355Z AUTO 20008KT 10SM SCT013 28/26 A2990 RMK AO2 T02770256
KAXH 231335Z AUTO 18006KT 10SM CLR 27/25 A2989 RMK AO2 T02660253
KAXH 231315Z AUTO 18003KT 10SM CLR 26/25 A2989 RMK AO2 T02560251
KAXH 231255Z AUTO 14004KT 7SM CLR 25/25 A2989 RMK AO2 T02470247
KAXH 231235Z AUTO 00000KT 7SM CLR 24/24 A2989 RMK AO2 T02380237
KAXH 231215Z AUTO 00000KT 5SM BR SCT020 SCT025 23/23 A2988 RMK AO2 T02300230
KAXH 231150Z AUTO 00000KT 4SM BR BKN020 BKN027 22/22 A2988 RMK AO2 T02210221 10235 20217
KAXH 231135Z AUTO 00000KT 4SM BR BKN019 BKN025 22/22 A2988 RMK AO2 T02220222
KAXH 231115Z AUTO 00000KT 3/4SM BR OVC019 22/22 A2987 RMK AO2 T02180218
KAXH 231055Z AUTO 00000KT 5SM BR BKN017 22/22 A2987 RMK AO2 T02230223
KAXH 231035Z AUTO 00000KT 1 1/4SM BR OVC019 22/22 A2986 RMK AO2 T02170217
KAXH 231015Z AUTO 00000KT 7SM BKN017 22/22 A2986 RMK AO2 T02210221
KAXH 230955Z AUTO 00000KT 5SM BR SCT017 22/22 A2986 RMK AO2 T02210221
KAXH 230935Z AUTO 00000KT 7SM OVC017 22/22 A2986 RMK AO2 T02230222
KAXH 230915Z AUTO 00000KT 4SM BR SCT017 22/22 A2986 RMK AO2 T02200219
KAXH 230855Z AUTO 00000KT 5SM BR CLR 22/22 A2986 RMK AO2 T02220220